Time;durP1;ratioP1;P1;durP2;ratioP2;P2;SDS_P1;SDS_P2;PMS_P1;PMS_P2;Temp;Humidity;BMP_temperature;BMP_pressure;BME280_temperature;BME280_humidity;BME280_pressure;Samples;Min_cycle;Max_cycle;Signal;HPM_P1;HPM_P2
2021/05/12 00:02:20;;;;;;;561.85;388.42;;;;;;;;;;5030142;28;20029;-79
2021/05/12 00:04:46;;;;;;;558.88;392.73;;;;;;;;;;5048320;28;20472;-79
2021/05/12 00:07:12;;;;;;;615.78;395.33;;;;;;;;;;5032091;28;20025;-80
2021/05/12 00:09:38;;;;;;;609.78;389.67;;;;;;;;;;5031698;28;20029;-79
2021/05/12 00:12:05;;;;;;;562.42;384.60;;;;;;;;;;5032485;28;20047;-79
2021/05/12 00:14:31;;;;;;;571.65;374.23;;;;;;;;;;5050473;28;20033;-79
2021/05/12 00:17:00;;;;;;;552.42;385.02;;;;;;;;;;5050106;28;20021;-79
2021/05/12 00:19:26;;;;;;;572.75;383.20;;;;;;;;;;5031941;28;20028;-79
2021/05/12 00:21:58;;;;;;;559.03;377.13;;;;;;;;;;5031966;28;20032;-79
2021/05/12 00:24:24;;;;;;;555.28;379.45;;;;;;;;;;5032236;28;20159;-79
2021/05/12 00:26:50;;;;;;;559.53;387.23;;;;;;;;;;5033191;28;20119;-79
2021/05/12 00:29:17;;;;;;;545.95;377.65;;;;;;;;;;5030250;28;20328;-79
2021/05/12 00:31:44;;;;;;;574.00;401.58;;;;;;;;;;5031798;28;20025;-79
2021/05/12 00:34:10;;;;;;;572.33;395.38;;;;;;;;;;5031870;28;20029;-79
2021/05/12 00:36:36;;;;;;;578.83;398.52;;;;;;;;;;5031833;28;20040;-79
2021/05/12 00:39:04;;;;;;;595.97;392.92;;;;;;;;;;5032744;28;20028;-79
2021/05/12 00:41:30;;;;;;;592.17;383.48;;;;;;;;;;5032182;28;20415;-79
2021/05/12 00:43:56;;;;;;;557.70;375.95;;;;;;;;;;5032907;28;20476;-79
2021/05/12 00:46:22;;;;;;;567.63;389.05;;;;;;;;;;5031722;28;20032;-79
2021/05/12 00:48:48;;;;;;;583.42;402.67;;;;;;;;;;5049636;28;20052;-79
2021/05/12 00:51:14;;;;;;;577.65;398.20;;;;;;;;;;5042609;28;20395;-78
2021/05/12 00:53:40;;;;;;;555.05;375.65;;;;;;;;;;5049934;28;20072;-79
2021/05/12 00:56:07;;;;;;;579.97;383.38;;;;;;;;;;5027838;28;20033;-79
2021/05/12 00:58:33;;;;;;;589.08;373.88;;;;;;;;;;5027685;28;20067;-79
2021/05/12 01:00:59;;;;;;;563.78;375.10;;;;;;;;;;5025448;28;20036;-79
2021/05/12 01:03:25;;;;;;;591.00;381.52;;;;;;;;;;5027367;28;20044;-79
2021/05/12 01:05:51;;;;;;;581.78;395.10;;;;;;;;;;5031435;28;20064;-79
2021/05/12 01:08:18;;;;;;;592.20;393.92;;;;;;;;;;5031350;28;20041;-79
2021/05/12 01:10:44;;;;;;;550.03;372.88;;;;;;;;;;5048303;28;20100;-79
2021/05/12 01:13:13;;;;;;;573.70;381.58;;;;;;;;;;5028611;28;20025;-79
2021/05/12 01:15:40;;;;;;;578.85;387.25;;;;;;;;;;5030334;28;20057;-78
2021/05/12 01:18:12;;;;;;;584.55;378.85;;;;;;;;;;5030953;28;20035;-78
2021/05/12 01:20:48;;;;;;;593.10;380.65;;;;;;;;;;5030814;28;20069;-79
2021/05/12 01:23:14;;;;;;;582.47;389.33;;;;;;;;;;5031893;28;20420;-79
2021/05/12 01:25:40;;;;;;;551.10;366.65;;;;;;;;;;5032759;28;20025;-79
2021/05/12 01:28:06;;;;;;;570.95;366.73;;;;;;;;;;5031311;28;20511;-79
2021/05/12 01:30:32;;;;;;;590.53;364.52;;;;;;;;;;5029878;28;20024;-79
2021/05/12 01:33:05;;;;;;;560.83;362.15;;;;;;;;;;5031581;28;20025;-78
2021/05/12 01:35:32;;;;;;;546.80;352.98;;;;;;;;;;5028991;28;20338;-79
2021/05/12 01:37:58;;;;;;;540.92;358.00;;;;;;;;;;5049200;28;20104;-79
2021/05/12 01:40:24;;;;;;;559.65;373.20;;;;;;;;;;5040777;28;20112;-79
2021/05/12 01:42:50;;;;;;;558.58;364.83;;;;;;;;;;5032403;28;20032;-79
2021/05/12 01:45:16;;;;;;;556.63;375.10;;;;;;;;;;5049103;28;20508;-79
2021/05/12 01:47:42;;;;;;;561.08;363.75;;;;;;;;;;5031623;28;20538;-79
2021/05/12 01:50:10;;;;;;;559.53;369.80;;;;;;;;;;5048552;28;20029;-79
2021/05/12 01:52:37;;;;;;;560.47;367.15;;;;;;;;;;5031660;28;20055;-79
2021/05/12 01:55:03;;;;;;;558.78;362.92;;;;;;;;;;5031944;28;20032;-78
2021/05/12 01:57:29;;;;;;;557.00;359.95;;;;;;;;;;5031191;28;20040;-79
2021/05/12 01:59:55;;;;;;;564.17;369.45;;;;;;;;;;5027457;28;20021;-79
2021/05/12 02:02:23;;;;;;;564.25;368.40;;;;;;;;;;5048418;28;20033;-79
2021/05/12 02:07:53;;;;;;;551.72;354.25;;;;;;;;;;5030277;28;20121;-79
2021/05/12 02:10:19;;;;;;;550.47;362.63;;;;;;;;;;5029737;28;20060;-79
2021/05/12 02:12:47;;;;;;;549.25;362.55;;;;;;;;;;5048726;28;20581;-79
2021/05/12 02:15:13;;;;;;;552.28;373.48;;;;;;;;;;5031229;28;20385;-79
2021/05/12 02:17:39;;;;;;;551.30;363.45;;;;;;;;;;5028380;28;20033;-79
2021/05/12 02:20:06;;;;;;;548.80;365.48;;;;;;;;;;5027303;28;20029;-79
2021/05/12 02:22:32;;;;;;;544.08;356.50;;;;;;;;;;5031468;28;20025;-79
2021/05/12 02:24:58;;;;;;;545.47;360.08;;;;;;;;;;5030163;28;20032;-79
2021/05/12 02:27:24;;;;;;;533.95;352.17;;;;;;;;;;5031322;28;20025;-79
2021/05/12 02:29:50;;;;;;;528.05;350.38;;;;;;;;;;5045665;28;20488;-79
2021/05/12 02:32:16;;;;;;;544.38;355.60;;;;;;;;;;5043971;28;20024;-80
2021/05/12 02:34:42;;;;;;;527.33;351.10;;;;;;;;;;5039922;28;20488;-80
2021/05/12 02:37:09;;;;;;;539.65;344.02;;;;;;;;;;5032566;28;20021;-80
2021/05/12 02:39:35;;;;;;;531.70;350.02;;;;;;;;;;5051714;28;20021;-79
2021/05/12 02:42:00;;;;;;;560.33;352.98;;;;;;;;;;5034903;28;20476;-79
2021/05/12 02:44:26;;;;;;;592.70;356.45;;;;;;;;;;5034479;28;20021;-79
2021/05/12 02:46:52;;;;;;;567.90;347.95;;;;;;;;;;5030219;28;20025;-80
2021/05/12 02:49:18;;;;;;;556.63;341.48;;;;;;;;;;5026050;28;20119;-80
2021/05/12 02:51:44;;;;;;;522.88;336.25;;;;;;;;;;5034045;28;20131;-80
2021/05/12 02:54:10;;;;;;;524.58;345.38;;;;;;;;;;5053122;28;20033;-79
2021/05/12 02:56:36;;;;;;;530.88;350.58;;;;;;;;;;5050457;28;20035;-79
2021/05/12 02:59:03;;;;;;;538.42;357.75;;;;;;;;;;5049488;28;20021;-80
2021/05/12 03:01:29;;;;;;;529.28;348.25;;;;;;;;;;5033489;28;20496;-80
2021/05/12 03:03:55;;;;;;;536.55;355.27;;;;;;;;;;5034347;28;20065;-80
2021/05/12 03:06:21;;;;;;;531.30;351.77;;;;;;;;;;5032944;28;20434;-80
2021/05/12 03:08:47;;;;;;;534.08;348.83;;;;;;;;;;5033494;28;20056;-80
2021/05/12 03:11:13;;;;;;;542.92;361.42;;;;;;;;;;5034306;28;20029;-80
2021/05/12 03:13:39;;;;;;;533.00;345.67;;;;;;;;;;5033335;28;20032;-80
2021/05/12 03:16:05;;;;;;;533.35;349.77;;;;;;;;;;5032530;28;20017;-80
2021/05/12 03:18:31;;;;;;;543.83;352.55;;;;;;;;;;5033105;28;20067;-80
2021/05/12 03:20:57;;;;;;;540.50;350.17;;;;;;;;;;5033128;28;20052;-80
2021/05/12 03:23:26;;;;;;;545.08;358.02;;;;;;;;;;5034657;28;20167;-79
2021/05/12 03:25:51;;;;;;;555.97;358.58;;;;;;;;;;5033469;28;20029;-80
2021/05/12 03:28:19;;;;;;;550.00;355.13;;;;;;;;;;5033105;28;20040;-80
2021/05/12 03:30:45;;;;;;;534.22;345.10;;;;;;;;;;5033178;28;20036;-80
2021/05/12 03:33:11;;;;;;;531.13;344.60;;;;;;;;;;5032709;28;20025;-79
2021/05/12 03:35:38;;;;;;;530.88;338.73;;;;;;;;;;5032638;28;20032;-80
2021/05/12 03:38:04;;;;;;;548.83;352.98;;;;;;;;;;5032960;28;20032;-80
2021/05/12 03:40:31;;;;;;;562.58;369.02;;;;;;;;;;5037005;28;20016;-80
2021/05/12 03:42:57;;;;;;;560.05;363.83;;;;;;;;;;5035506;28;20036;-80
2021/05/12 03:45:24;;;;;;;577.05;381.73;;;;;;;;;;5032288;28;20036;-80
2021/05/12 03:47:50;;;;;;;562.75;367.90;;;;;;;;;;5032555;28;20498;-80
2021/05/12 03:50:17;;;;;;;574.75;368.30;;;;;;;;;;5032381;28;20036;-80
2021/05/12 03:52:43;;;;;;;568.22;368.25;;;;;;;;;;5032599;28;20049;-80
2021/05/12 03:55:10;;;;;;;562.90;355.95;;;;;;;;;;5032897;28;20019;-80
2021/05/12 03:57:36;;;;;;;558.13;365.48;;;;;;;;;;5032987;28;20029;-80
2021/05/12 04:00:03;;;;;;;550.20;346.35;;;;;;;;;;5030981;28;20032;-80
2021/05/12 04:02:29;;;;;;;564.22;364.30;;;;;;;;;;5031344;28;20528;-80
2021/05/12 04:04:55;;;;;;;558.10;353.00;;;;;;;;;;5033096;28;20029;-80
2021/05/12 04:07:22;;;;;;;558.63;353.08;;;;;;;;;;5032569;28;20025;-80
2021/05/12 04:09:48;;;;;;;557.60;355.40;;;;;;;;;;5031530;28;20139;-80
2021/05/12 04:12:14;;;;;;;549.65;357.30;;;;;;;;;;5030689;28;20380;-80
2021/05/12 04:14:40;;;;;;;544.53;347.88;;;;;;;;;;5032490;28;20028;-80
2021/05/12 04:17:06;;;;;;;560.30;354.77;;;;;;;;;;5021682;28;20021;-80
2021/05/12 04:19:32;;;;;;;585.58;368.98;;;;;;;;;;5032441;28;20406;-80
2021/05/12 04:21:58;;;;;;;556.58;353.50;;;;;;;;;;5032289;28;20033;-80
2021/05/12 04:24:24;;;;;;;576.50;365.10;;;;;;;;;;5032287;28;20033;-80
2021/05/12 04:26:51;;;;;;;573.65;367.38;;;;;;;;;;5032197;28;20366;-80
2021/05/12 04:29:17;;;;;;;570.30;369.13;;;;;;;;;;5030245;28;20030;-80
2021/05/12 04:31:43;;;;;;;551.15;346.17;;;;;;;;;;5043028;28;20033;-80
2021/05/12 04:34:09;;;;;;;560.15;352.55;;;;;;;;;;5032455;28;20158;-79
2021/05/12 04:36:38;;;;;;;549.50;347.83;;;;;;;;;;5050228;28;20025;-80
2021/05/12 04:39:05;;;;;;;578.37;371.47;;;;;;;;;;5032547;28;20021;-79
2021/05/12 04:41:31;;;;;;;575.75;364.98;;;;;;;;;;5032373;28;20284;-79
2021/05/12 04:43:57;;;;;;;587.03;365.80;;;;;;;;;;5031323;28;20043;-79
2021/05/12 04:46:25;;;;;;;578.65;369.15;;;;;;;;;;5048279;28;20135;-79
2021/05/12 04:48:51;;;;;;;581.95;372.63;;;;;;;;;;5039588;28;20026;-79
2021/05/12 04:51:17;;;;;;;575.03;360.80;;;;;;;;;;5054307;28;20502;-78
2021/05/12 04:53:43;;;;;;;561.40;351.35;;;;;;;;;;5042513;28;20487;-78
2021/05/12 04:56:09;;;;;;;570.28;360.38;;;;;;;;;;5033073;28;20023;-78
2021/05/12 04:58:35;;;;;;;561.88;354.23;;;;;;;;;;5031276;28;20021;-79
2021/05/12 05:01:01;;;;;;;560.65;357.52;;;;;;;;;;5030961;28;20071;-78
2021/05/12 05:03:51;;;;;;;582.65;368.40;;;;;;;;;;5035072;28;20115;-79
2021/05/12 05:06:17;;;;;;;595.28;369.40;;;;;;;;;;5062799;28;20511;-79
2021/05/12 05:08:43;;;;;;;554.90;349.45;;;;;;;;;;5031160;28;20039;-79
2021/05/12 05:11:09;;;;;;;566.03;352.50;;;;;;;;;;5034425;28;20024;-79
2021/05/12 05:13:36;;;;;;;619.78;384.92;;;;;;;;;;5051703;28;20025;-79
2021/05/12 05:16:02;;;;;;;581.85;372.48;;;;;;;;;;5035118;28;20063;-79
2021/05/12 05:18:28;;;;;;;569.53;362.77;;;;;;;;;;5034346;28;20079;-78
2021/05/12 05:20:55;;;;;;;533.45;334.65;;;;;;;;;;5035221;28;20053;-78
2021/05/12 05:23:21;;;;;;;538.88;345.77;;;;;;;;;;5034879;28;20063;-78
2021/05/12 05:25:47;;;;;;;605.85;388.95;;;;;;;;;;5034555;28;20067;-78
2021/05/12 05:28:13;;;;;;;558.05;348.60;;;;;;;;;;5034637;28;20025;-79
2021/05/12 05:30:39;;;;;;;559.90;351.65;;;;;;;;;;5051363;28;20751;-79
2021/05/12 05:33:05;;;;;;;558.65;354.10;;;;;;;;;;5034579;28;20175;-79
2021/05/12 05:35:31;;;;;;;554.65;350.58;;;;;;;;;;5034536;28;20051;-78
2021/05/12 05:37:57;;;;;;;555.38;350.33;;;;;;;;;;5032340;28;20033;-80
2021/05/12 05:40:23;;;;;;;560.95;360.50;;;;;;;;;;5033885;28;20028;-79
2021/05/12 05:42:58;;;;;;;558.88;355.00;;;;;;;;;;5052164;28;20057;-80
2021/05/12 05:45:24;;;;;;;539.42;344.35;;;;;;;;;;5034337;28;20186;-78
2021/05/12 05:47:50;;;;;;;566.83;367.27;;;;;;;;;;5034132;28;20040;-80
2021/05/12 05:50:16;;;;;;;573.35;362.98;;;;;;;;;;5034277;28;20028;-79
2021/05/12 05:52:42;;;;;;;577.83;374.02;;;;;;;;;;5034821;28;20045;-79
2021/05/12 05:55:08;;;;;;;549.58;345.45;;;;;;;;;;5034156;28;20053;-79
2021/05/12 05:57:34;;;;;;;540.25;349.75;;;;;;;;;;5046451;28;20032;-79
2021/05/12 06:00:22;;;;;;;561.72;354.60;;;;;;;;;;5032962;28;20044;-79
2021/05/12 06:02:48;;;;;;;558.95;352.08;;;;;;;;;;5052080;28;20029;-79
2021/05/12 06:05:15;;;;;;;561.50;359.42;;;;;;;;;;5031228;28;20036;-80
2021/05/12 06:07:41;;;;;;;532.33;340.92;;;;;;;;;;5056301;28;20020;-79
2021/05/12 06:10:08;;;;;;;569.92;372.30;;;;;;;;;;5038167;28;20025;-80
2021/05/12 06:12:34;;;;;;;559.95;368.10;;;;;;;;;;5025231;28;20029;-81
2021/05/12 06:15:00;;;;;;;599.60;401.15;;;;;;;;;;5029146;28;20507;-85
2021/05/12 06:17:26;;;;;;;566.60;372.17;;;;;;;;;;5028079;28;20018;-82
2021/05/12 06:19:53;;;;;;;570.95;375.88;;;;;;;;;;5044639;28;20021;-83
2021/05/12 06:22:19;;;;;;;577.53;380.77;;;;;;;;;;5038512;28;20128;-82
2021/05/12 06:24:45;;;;;;;577.05;376.85;;;;;;;;;;5056444;28;20708;-85
2021/05/12 06:27:11;;;;;;;558.65;368.50;;;;;;;;;;5038986;28;20029;-85
2021/05/12 06:29:43;;;;;;;559.53;369.45;;;;;;;;;;5037421;28;20039;-84
2021/05/12 06:32:09;;;;;;;550.28;370.25;;;;;;;;;;5055135;28;20029;-85
2021/05/12 06:34:35;;;;;;;551.20;371.90;;;;;;;;;;5045196;28;20112;-77
2021/05/12 06:37:02;;;;;;;563.92;381.80;;;;;;;;;;5036513;28;20032;-80
2021/05/12 06:39:28;;;;;;;565.00;373.80;;;;;;;;;;5047769;28;20036;-81
2021/05/12 06:41:55;;;;;;;551.63;366.83;;;;;;;;;;5037754;28;20615;-81
2021/05/12 06:44:21;;;;;;;538.72;367.45;;;;;;;;;;5037968;28;20531;-76
2021/05/12 06:46:47;;;;;;;534.35;355.33;;;;;;;;;;5036635;28;20028;-80
2021/05/12 06:49:13;;;;;;;527.25;349.67;;;;;;;;;;5037618;28;20029;-79
2021/05/12 06:51:39;;;;;;;519.80;354.95;;;;;;;;;;5055823;28;20032;-81
2021/05/12 06:54:06;;;;;;;534.05;364.90;;;;;;;;;;5055249;28;20116;-81
2021/05/12 06:56:35;;;;;;;543.95;365.10;;;;;;;;;;5038146;28;20477;-80
2021/05/12 06:59:01;;;;;;;550.17;375.50;;;;;;;;;;5037708;28;20538;-81
2021/05/12 07:01:27;;;;;;;560.30;379.58;;;;;;;;;;5037883;28;20016;-80
2021/05/12 07:03:52;;;;;;;551.22;376.25;;;;;;;;;;5037223;28;20032;-84
2021/05/12 07:06:18;;;;;;;543.03;368.30;;;;;;;;;;5036989;28;20796;-82
2021/05/12 07:08:48;;;;;;;530.00;369.00;;;;;;;;;;5037235;28;20048;-83
2021/05/12 07:11:26;;;;;;;537.03;369.02;;;;;;;;;;5037670;28;20021;-87
2021/05/12 07:13:53;;;;;;;537.05;368.40;;;;;;;;;;5037771;28;20485;-85
2021/05/12 07:16:19;;;;;;;539.63;376.05;;;;;;;;;;5035548;28;20036;-82
2021/05/12 07:18:45;;;;;;;548.00;385.95;;;;;;;;;;5035663;28;20037;-88
2021/05/12 07:21:11;;;;;;;561.25;386.30;;;;;;;;;;5033238;28;20028;-83
2021/05/12 07:23:39;;;;;;;584.85;407.05;;;;;;;;;;5033846;28;20102;-83
2021/05/12 07:26:05;;;;;;;585.22;411.00;;;;;;;;;;5035057;28;20083;-83
2021/05/12 07:28:32;;;;;;;578.35;410.73;;;;;;;;;;5050743;28;20025;-84
2021/05/12 07:30:58;;;;;;;577.47;407.20;;;;;;;;;;5034940;28;20530;-80
2021/05/12 07:33:24;;;;;;;571.63;403.58;;;;;;;;;;5036866;28;20540;-82
2021/05/12 07:35:49;;;;;;;570.05;405.80;;;;;;;;;;5036944;28;20141;-80
2021/05/12 07:38:15;;;;;;;572.58;407.00;;;;;;;;;;5036919;28;20017;-84
2021/05/12 07:40:41;;;;;;;567.38;404.20;;;;;;;;;;5035703;28;20581;-79
2021/05/12 07:43:09;;;;;;;556.80;404.90;;;;;;;;;;5031304;28;20123;-79
2021/05/12 07:45:37;;;;;;;566.33;401.92;;;;;;;;;;5052347;28;20020;-78
2021/05/12 07:48:07;;;;;;;559.65;402.20;;;;;;;;;;5036954;28;20033;-80
2021/05/12 07:50:33;;;;;;;573.38;405.67;;;;;;;;;;5036882;28;20477;-80
2021/05/12 07:53:04;;;;;;;581.50;415.95;;;;;;;;;;5050994;28;20037;-80
2021/05/12 07:55:30;;;;;;;599.17;429.42;;;;;;;;;;5015256;28;20708;-84
2021/05/12 07:57:57;;;;;;;591.22;428.15;;;;;;;;;;5018405;28;20371;-83
2021/05/12 08:00:23;;;;;;;600.75;438.80;;;;;;;;;;5025469;28;20033;-81
2021/05/12 08:02:50;;;;;;;602.03;447.08;;;;;;;;;;5035996;28;20855;-85
2021/05/12 08:05:16;;;;;;;595.08;439.33;;;;;;;;;;5033143;28;20082;-80
2021/05/12 08:07:42;;;;;;;586.67;438.27;;;;;;;;;;5033037;28;20144;-81
2021/05/12 08:10:09;;;;;;;594.58;444.25;;;;;;;;;;5035752;28;20074;-81
2021/05/12 08:12:35;;;;;;;565.35;422.67;;;;;;;;;;5034625;28;20036;-83
2021/05/12 08:15:01;;;;;;;575.83;441.25;;;;;;;;;;5035626;28;20021;-79
2021/05/12 08:17:28;;;;;;;580.05;450.67;;;;;;;;;;5035481;28;20115;-82
2021/05/12 08:19:56;;;;;;;572.92;461.70;;;;;;;;;;5035486;28;20021;-77
2021/05/12 08:22:22;;;;;;;582.17;473.77;;;;;;;;;;5035666;28;20017;-81
2021/05/12 08:24:48;;;;;;;588.72;496.42;;;;;;;;;;5035880;28;20040;-81
2021/05/12 08:27:14;;;;;;;594.58;508.90;;;;;;;;;;5032245;28;20042;-82
2021/05/12 08:29:42;;;;;;;596.30;530.35;;;;;;;;;;5034095;28;20776;-83
2021/05/12 08:32:10;;;;;;;593.42;528.40;;;;;;;;;;5017907;28;20025;-81
2021/05/12 08:34:36;;;;;;;601.42;536.67;;;;;;;;;;5016185;28;20071;-80
2021/05/12 08:37:03;;;;;;;613.97;548.50;;;;;;;;;;5033838;28;20029;-84
2021/05/12 08:39:28;;;;;;;622.95;557.45;;;;;;;;;;5033604;28;20021;-82
2021/05/12 08:41:55;;;;;;;612.53;548.10;;;;;;;;;;5015822;28;20102;-85
2021/05/12 08:44:34;;;;;;;601.25;537.90;;;;;;;;;;5016289;28;20744;-84
2021/05/12 08:47:01;;;;;;;632.50;567.28;;;;;;;;;;5028706;28;20030;-80
2021/05/12 08:49:27;;;;;;;638.15;573.25;;;;;;;;;;5053827;28;20068;-86
2021/05/12 08:51:54;;;;;;;674.58;607.47;;;;;;;;;;5032632;28;20048;-79
2021/05/12 08:54:20;;;;;;;656.08;590.85;;;;;;;;;;5032793;28;20449;-82
2021/05/12 08:56:46;;;;;;;685.70;619.10;;;;;;;;;;5036170;28;20048;-87
2021/05/12 08:59:12;;;;;;;668.65;603.95;;;;;;;;;;5035155;28;20472;-83
2021/05/12 09:01:38;;;;;;;664.58;600.10;;;;;;;;;;5034615;28;20074;-89
2021/05/12 09:04:04;;;;;;;649.20;585.50;;;;;;;;;;5017993;28;20025;-84
2021/05/12 09:06:34;;;;;;;689.03;622.15;;;;;;;;;;5016082;28;20028;-85
2021/05/12 09:09:00;;;;;;;688.58;622.15;;;;;;;;;;5031676;28;20557;-88
2021/05/12 09:12:03;;;;;;;709.42;642.45;;;;;;;;;;5033671;28;20049;-86
2021/05/12 09:14:32;;;;;;;730.40;662.83;;;;;;;;;;5035694;28;20021;-86
2021/05/12 09:16:58;;;;;;;715.43;649.67;;;;;;;;;;5053614;28;20024;-88
2021/05/12 09:19:25;;;;;;;722.63;656.95;;;;;;;;;;5035699;28;20024;-87
2021/05/12 09:22:00;;;;;;;735.15;668.88;;;;;;;;;;5050962;28;20564;-87
2021/05/12 09:24:28;;;;;;;725.38;659.72;;;;;;;;;;5055976;28;20035;-86
2021/05/12 09:26:57;;;;;;;757.50;688.88;;;;;;;;;;5038005;28;20036;-84
2021/05/12 09:29:31;;;;;;;752.33;684.58;;;;;;;;;;5048483;28;20033;-84
2021/05/12 09:35:02;;;;;;;829.03;756.53;;;;;;;;;;5053004;28;20032;-89
2021/05/12 09:37:30;;;;;;;759.85;692.63;;;;;;;;;;5035222;28;20495;-84
2021/05/12 09:39:57;;;;;;;763.15;696.20;;;;;;;;;;5034676;28;20469;-81
2021/05/12 09:42:23;;;;;;;744.25;679.05;;;;;;;;;;5035116;28;20029;-85
2021/05/12 09:45:09;;;;;;;784.47;715.88;;;;;;;;;;5033008;28;20658;-83
2021/05/12 09:47:35;;;;;;;755.83;689.13;;;;;;;;;;5035076;28;20025;-82
2021/05/12 09:50:32;;;;;;;826.92;663.10;;;;;;;;;;5028702;28;20030;-84
2021/05/12 09:52:59;;;;;;;879.35;689.47;;;;;;;;;;5027515;28;20087;-85
2021/05/12 09:55:35;;;;;;;1011.25;715.78;;;;;;;;;;5016244;28;20026;-83
2021/05/12 09:58:01;;;;;;;947.20;667.33;;;;;;;;;;5014387;28;20071;-85
2021/05/12 10:00:29;;;;;;;740.45;672.67;;;;;;;;;;5029409;28;20116;-86
2021/05/12 10:02:56;;;;;;;707.80;641.92;;;;;;;;;;5032173;28;20489;-83
2021/05/12 10:05:22;;;;;;;710.85;643.45;;;;;;;;;;5031695;28;20033;-84
2021/05/12 10:07:52;;;;;;;681.38;614.65;;;;;;;;;;5049561;28;20027;-85
2021/05/12 10:10:37;;;;;;;684.80;616.05;;;;;;;;;;5031247;28;20044;-79
2021/05/12 10:13:03;;;;;;;655.25;588.72;;;;;;;;;;5065662;28;20377;-81
2021/05/12 10:15:31;;;;;;;627.10;564.40;;;;;;;;;;5051497;28;20021;-82
2021/05/12 10:17:57;;;;;;;641.10;577.40;;;;;;;;;;5051255;28;20449;-84
2021/05/12 10:20:23;;;;;;;667.83;602.45;;;;;;;;;;5069457;28;20091;-84
2021/05/12 10:22:50;;;;;;;675.85;609.58;;;;;;;;;;5051265;28;20021;-83
2021/05/12 10:25:16;;;;;;;644.63;579.35;;;;;;;;;;5051667;28;20029;-85
2021/05/12 10:27:43;;;;;;;650.00;584.00;;;;;;;;;;5051438;28;20067;-79
2021/05/12 10:30:09;;;;;;;624.70;560.95;;;;;;;;;;5047210;28;20032;-85
2021/05/12 10:32:36;;;;;;;609.00;547.35;;;;;;;;;;5030079;28;20025;-83
2021/05/12 10:35:06;;;;;;;633.22;570.17;;;;;;;;;;5033722;28;20036;-83
2021/05/12 10:37:33;;;;;;;622.20;559.97;;;;;;;;;;5033295;28;20021;-88
2021/05/12 10:40:01;;;;;;;685.15;616.45;;;;;;;;;;5046326;28;20538;-87
2021/05/12 10:42:48;;;;;;;633.13;568.33;;;;;;;;;;5031899;28;20033;-86
2021/05/12 10:45:20;;;;;;;609.28;545.35;;;;;;;;;;5046064;28;20025;-87
2021/05/12 10:47:47;;;;;;;599.88;536.15;;;;;;;;;;5050580;28;20078;-83
2021/05/12 10:50:13;;;;;;;568.67;507.27;;;;;;;;;;5025228;28;20060;-82
2021/05/12 10:52:39;;;;;;;562.22;501.48;;;;;;;;;;5053718;28;20493;-83
2021/05/12 10:55:05;;;;;;;621.78;511.08;;;;;;;;;;5021054;28;20036;-85
2021/05/12 10:57:48;;;;;;;576.22;494.27;;;;;;;;;;5042269;28;20106;-83
2021/05/12 11:00:36;;;;;;;580.08;514.38;;;;;;;;;;5033283;28;20025;-85
2021/05/12 11:03:03;;;;;;;560.63;486.33;;;;;;;;;;5054470;28;20036;-87
2021/05/12 11:05:43;;;;;;;551.80;478.65;;;;;;;;;;5036806;28;20036;-87
2021/05/12 11:08:21;;;;;;;543.70;464.08;;;;;;;;;;5054693;28;20488;-85
2021/05/12 11:10:55;;;;;;;605.22;482.63;;;;;;;;;;5037351;28;20071;-87
2021/05/12 11:13:22;;;;;;;528.95;464.17;;;;;;;;;;5055255;28;20017;-84
2021/05/12 11:15:53;;;;;;;542.55;483.15;;;;;;;;;;5037216;28;20028;-86
2021/05/12 11:18:51;;;;;;;552.42;493.55;;;;;;;;;;5037566;28;20029;-89
2021/05/12 11:21:24;;;;;;;570.28;511.33;;;;;;;;;;4991709;28;20034;-86
2021/05/12 11:24:08;;;;;;;575.03;516.13;;;;;;;;;;5050739;28;20021;-87
2021/05/12 11:27:02;;;;;;;579.75;520.47;;;;;;;;;;5034258;28;20021;-84
2021/05/12 11:32:01;;;;;;;586.47;527.22;;;;;;;;;;5048674;28;20056;-87
2021/05/12 11:34:28;;;;;;;580.17;521.40;;;;;;;;;;5035586;28;20026;-85
2021/05/12 11:37:27;;;;;;;588.38;528.58;;;;;;;;;;5061141;28;20031;-85
2021/05/12 11:39:54;;;;;;;579.47;520.78;;;;;;;;;;4982950;28;20389;-83
2021/05/12 11:42:20;;;;;;;595.05;535.78;;;;;;;;;;5028679;28;20084;-88
2021/05/12 11:45:02;;;;;;;592.70;534.20;;;;;;;;;;5053205;28;20063;-86
2021/05/12 11:47:29;;;;;;;605.92;546.65;;;;;;;;;;5033403;28;20473;-80
2021/05/12 11:49:55;;;;;;;603.13;544.38;;;;;;;;;;5019127;28;20029;-81
2021/05/12 11:52:28;;;;;;;610.53;551.80;;;;;;;;;;5035480;28;20017;-79
2021/05/12 11:54:54;;;;;;;626.30;566.80;;;;;;;;;;5019376;28;20037;-82
2021/05/12 11:57:20;;;;;;;632.88;573.42;;;;;;;;;;5050696;28;20741;-81
2021/05/12 11:59:46;;;;;;;625.33;566.40;;;;;;;;;;5017676;28;20108;-82
2021/05/12 12:02:13;;;;;;;615.28;556.83;;;;;;;;;;5034981;28;20550;-83
2021/05/12 12:07:11;;;;;;;577.63;519.72;;;;;;;;;;5047356;28;20120;-83
2021/05/12 12:09:37;;;;;;;565.92;508.27;;;;;;;;;;5036944;28;20107;-88
2021/05/12 12:12:04;;;;;;;560.63;503.08;;;;;;;;;;5022103;28;20032;-87
2021/05/12 12:14:30;;;;;;;557.28;499.88;;;;;;;;;;5016789;28;20029;-85
2021/05/12 12:16:56;;;;;;;572.10;514.50;;;;;;;;;;5029254;28;20025;-83
2021/05/12 12:19:24;;;;;;;578.72;521.08;;;;;;;;;;5020784;28;20432;-85
2021/05/12 12:21:53;;;;;;;574.10;516.22;;;;;;;;;;5034293;28;20389;-84
2021/05/12 12:24:24;;;;;;;562.22;505.08;;;;;;;;;;5026176;28;20035;-82
2021/05/12 12:26:55;;;;;;;565.53;507.85;;;;;;;;;;5034979;28;20021;-83
2021/05/12 12:29:21;;;;;;;549.85;493.17;;;;;;;;;;5034161;28;20025;-82
2021/05/12 12:31:55;;;;;;;537.35;481.10;;;;;;;;;;5034705;28;20063;-81
2021/05/12 12:34:22;;;;;;;535.92;479.65;;;;;;;;;;5033294;28;20086;-85
2021/05/12 12:36:59;;;;;;;543.78;487.25;;;;;;;;;;5033797;28;20037;-87
2021/05/12 12:40:02;;;;;;;572.78;515.72;;;;;;;;;;5033411;28;20025;-85
2021/05/12 12:42:30;;;;;;;592.60;535.28;;;;;;;;;;5029720;28;20132;-86
2021/05/12 12:45:04;;;;;;;599.45;542.60;;;;;;;;;;5031597;28;20079;-86
2021/05/12 12:47:30;;;;;;;594.90;537.72;;;;;;;;;;5043323;28;20028;-83
2021/05/12 12:50:01;;;;;;;581.03;524.28;;;;;;;;;;5032321;28;20082;-85
2021/05/12 12:52:30;;;;;;;577.88;520.90;;;;;;;;;;5034469;28;20029;-85
2021/05/12 12:55:05;;;;;;;566.45;509.63;;;;;;;;;;5051914;28;20047;-85
2021/05/12 12:57:39;;;;;;;558.30;501.38;;;;;;;;;;5053026;28;20047;-87
2021/05/12 13:00:09;;;;;;;547.33;490.70;;;;;;;;;;5033584;28;20032;-83
2021/05/12 13:03:07;;;;;;;541.55;484.90;;;;;;;;;;5052373;28;20112;-84
2021/05/12 13:05:35;;;;;;;549.08;491.55;;;;;;;;;;5002043;28;20032;-85
2021/05/12 13:08:14;;;;;;;550.95;493.88;;;;;;;;;;5024426;28;20032;-83
2021/05/12 13:10:42;;;;;;;558.72;501.70;;;;;;;;;;5024708;28;20039;-82
2021/05/12 13:13:38;;;;;;;582.60;524.80;;;;;;;;;;5034739;28;20044;-87
2021/05/12 13:16:16;;;;;;;577.10;520.30;;;;;;;;;;5053227;28;20017;-86
2021/05/12 13:18:49;;;;;;;566.95;510.63;;;;;;;;;;5035622;28;20092;-88
2021/05/12 13:21:18;;;;;;;560.58;503.95;;;;;;;;;;5036029;28;20021;-86
2021/05/12 13:23:54;;;;;;;549.42;493.00;;;;;;;;;;5053350;28;20717;-86
2021/05/12 13:26:23;;;;;;;541.47;484.92;;;;;;;;;;5035072;28;20025;-84
2021/05/12 13:28:48;;;;;;;538.60;481.80;;;;;;;;;;5048865;28;20029;-86
2021/05/12 13:31:14;;;;;;;540.13;482.95;;;;;;;;;;5052007;28;20089;-84
2021/05/12 13:33:47;;;;;;;554.38;497.02;;;;;;;;;;5035120;28;20025;-87
2021/05/12 13:36:13;;;;;;;565.35;508.52;;;;;;;;;;5052112;28;20023;-86
2021/05/12 13:38:39;;;;;;;575.80;518.95;;;;;;;;;;5030194;28;20108;-87
2021/05/12 13:41:05;;;;;;;580.90;524.17;;;;;;;;;;5035146;28;20032;-86
2021/05/12 13:43:31;;;;;;;589.60;526.13;;;;;;;;;;5051960;28;20116;-90
2021/05/12 13:45:57;;;;;;;572.53;514.63;;;;;;;;;;5029755;28;20461;-86
2021/05/12 13:48:23;;;;;;;580.72;522.42;;;;;;;;;;5034882;28;20029;-85
2021/05/12 13:50:50;;;;;;;585.92;527.95;;;;;;;;;;5052966;28;20025;-82
2021/05/12 14:03:47;;;;;;;530.42;474.02;;;;;;;;;;5033400;28;20079;-87
2021/05/12 14:06:18;;;;;;;530.10;473.40;;;;;;;;;;5015185;28;20029;-88
2021/05/12 14:08:45;;;;;;;527.78;471.50;;;;;;;;;;5036989;28;20025;-84
2021/05/12 14:11:11;;;;;;;532.08;475.08;;;;;;;;;;5050542;28;20032;-86
2021/05/12 14:13:37;;;;;;;537.88;480.55;;;;;;;;;;5034704;28;20033;-84
2021/05/12 14:18:33;;;;;;;535.33;478.77;;;;;;;;;;5053041;28;20027;-85
2021/05/12 14:20:59;;;;;;;537.97;480.42;;;;;;;;;;5035025;28;20023;-84
2021/05/12 14:23:25;;;;;;;520.25;463.80;;;;;;;;;;5034985;28;20124;-87